sensor_id;sensor_type;location;lat;lon;timestamp;temperature;humidity
36586;DHT22;22591;48.314;11.562;2023-12-28T00:00:34;1.50;99.90
36586;DHT22;22591;48.314;11.562;2023-12-28T00:02:59;1.60;99.90
36586;DHT22;22591;48.314;11.562;2023-12-28T00:05:25;1.40;99.90
36586;DHT22;22591;48.314;11.562;2023-12-28T00:07:50;1.60;99.90
36586;DHT22;22591;48.314;11.562;2023-12-28T00:10:26;1.90;99.90
36586;DHT22;22591;48.314;11.562;2023-12-28T00:12:53;1.90;99.90
36586;DHT22;22591;48.314;11.562;2023-12-28T00:15:18;1.80;99.90
36586;DHT22;22591;48.314;11.562;2023-12-28T00:17:44;1.80;99.90
36586;DHT22;22591;48.314;11.562;2023-12-28T00:20:10;2.00;99.70
36586;DHT22;22591;48.314;11.562;2023-12-28T00:22:35;1.90;99.80
36586;DHT22;22591;48.314;11.562;2023-12-28T00:25:03;2.00;99.40
36586;DHT22;22591;48.314;11.562;2023-12-28T00:27:29;2.20;98.60
36586;DHT22;22591;48.314;11.562;2023-12-28T00:29:54;2.10;99.30
36586;DHT22;22591;48.314;11.562;2023-12-28T00:32:20;2.10;98.80
36586;DHT22;22591;48.314;11.562;2023-12-28T00:34:45;2.30;98.00
36586;DHT22;22591;48.314;11.562;2023-12-28T00:37:11;2.30;97.80
36586;DHT22;22591;48.314;11.562;2023-12-28T00:39:36;2.30;97.80
36586;DHT22;22591;48.314;11.562;2023-12-28T00:42:03;2.50;96.70
36586;DHT22;22591;48.314;11.562;2023-12-28T00:44:28;2.70;95.80
36586;DHT22;22591;48.314;11.562;2023-12-28T00:46:54;2.70;95.50
36586;DHT22;22591;48.314;11.562;2023-12-28T00:49:20;2.70;94.90
36586;DHT22;22591;48.314;11.562;2023-12-28T00:51:46;2.70;95.30
36586;DHT22;22591;48.314;11.562;2023-12-28T00:54:11;2.50;95.80
36586;DHT22;22591;48.314;11.562;2023-12-28T00:56:37;2.40;96.00
36586;DHT22;22591;48.314;11.562;2023-12-28T00:59:03;2.40;95.90
36586;DHT22;22591;48.314;11.562;2023-12-28T01:01:28;2.40;95.70
36586;DHT22;22591;48.314;11.562;2023-12-28T01:03:56;2.10;96.40
36586;DHT22;22591;48.314;11.562;2023-12-28T01:06:21;2.30;95.60
36586;DHT22;22591;48.314;11.562;2023-12-28T01:08:47;2.00;96.40
36586;DHT22;22591;48.314;11.562;2023-12-28T01:11:13;2.40;95.70
36586;DHT22;22591;48.314;11.562;2023-12-28T01:13:38;2.40;95.30
36586;DHT22;22591;48.314;11.562;2023-12-28T01:16:04;2.30;95.60
36586;DHT22;22591;48.314;11.562;2023-12-28T01:18:30;2.40;95.10
36586;DHT22;22591;48.314;11.562;2023-12-28T01:20:55;2.40;95.40
36586;DHT22;22591;48.314;11.562;2023-12-28T01:23:21;2.30;95.60
36586;DHT22;22591;48.314;11.562;2023-12-28T01:25:46;2.40;95.20
36586;DHT22;22591;48.314;11.562;2023-12-28T01:28:12;2.50;94.80
36586;DHT22;22591;48.314;11.562;2023-12-28T01:30:37;2.90;93.60
36586;DHT22;22591;48.314;11.562;2023-12-28T01:33:04;3.20;92.50
36586;DHT22;22591;48.314;11.562;2023-12-28T01:35:29;3.50;91.50
36586;DHT22;22591;48.314;11.562;2023-12-28T01:37:55;3.60;91.00
36586;DHT22;22591;48.314;11.562;2023-12-28T01:40:21;3.70;90.70
36586;DHT22;22591;48.314;11.562;2023-12-28T01:42:46;3.90;89.80
36586;DHT22;22591;48.314;11.562;2023-12-28T01:45:12;4.10;87.30
36586;DHT22;22591;48.314;11.562;2023-12-28T01:47:37;3.80;88.90
36586;DHT22;22591;48.314;11.562;2023-12-28T01:50:05;4.00;86.30
36586;DHT22;22591;48.314;11.562;2023-12-28T01:52:31;4.40;84.10
36586;DHT22;22591;48.314;11.562;2023-12-28T01:54:57;4.40;84.00
36586;DHT22;22591;48.314;11.562;2023-12-28T01:57:22;4.50;82.80
36586;DHT22;22591;48.314;11.562;2023-12-28T01:59:48;4.60;82.20
36586;DHT22;22591;48.314;11.562;2023-12-28T02:02:14;4.40;83.00
36586;DHT22;22591;48.314;11.562;2023-12-28T02:04:40;4.40;83.00
36586;DHT22;22591;48.314;11.562;2023-12-28T02:07:05;4.40;83.30
36586;DHT22;22591;48.314;11.562;2023-12-28T02:09:32;4.30;83.60
36586;DHT22;22591;48.314;11.562;2023-12-28T02:11:57;4.40;82.70
36586;DHT22;22591;48.314;11.562;2023-12-28T02:14:23;4.40;82.40
36586;DHT22;22591;48.314;11.562;2023-12-28T02:17:01;4.50;82.80
36586;DHT22;22591;48.314;11.562;2023-12-28T02:19:48;4.40;82.80
36586;DHT22;22591;48.314;11.562;2023-12-28T02:22:15;4.30;82.50
36586;DHT22;22591;48.314;11.562;2023-12-28T02:24:58;4.20;83.60
36586;DHT22;22591;48.314;11.562;2023-12-28T02:27:23;4.10;83.50
36586;DHT22;22591;48.314;11.562;2023-12-28T02:29:49;4.40;81.70
36586;DHT22;22591;48.314;11.562;2023-12-28T02:32:15;4.60;80.80
36586;DHT22;22591;48.314;11.562;2023-12-28T02:34:44;4.30;82.80
36586;DHT22;22591;48.314;11.562;2023-12-28T02:37:12;3.90;85.20
36586;DHT22;22591;48.314;11.562;2023-12-28T02:39:43;3.60;86.00
36586;DHT22;22591;48.314;11.562;2023-12-28T02:42:12;3.50;86.90
36586;DHT22;22591;48.314;11.562;2023-12-28T02:44:37;3.50;87.60
36586;DHT22;22591;48.314;11.562;2023-12-28T02:47:03;3.50;87.10
36586;DHT22;22591;48.314;11.562;2023-12-28T02:49:29;3.40;87.80
36586;DHT22;22591;48.314;11.562;2023-12-28T02:51:54;3.30;87.90
36586;DHT22;22591;48.314;11.562;2023-12-28T02:54:20;3.50;86.80
36586;DHT22;22591;48.314;11.562;2023-12-28T02:56:46;3.60;86.30
36586;DHT22;22591;48.314;11.562;2023-12-28T02:59:11;3.70;86.10
36586;DHT22;22591;48.314;11.562;2023-12-28T03:01:37;3.70;85.30
36586;DHT22;22591;48.314;11.562;2023-12-28T03:04:02;3.80;84.20
36586;DHT22;22591;48.314;11.562;2023-12-28T03:06:28;4.10;83.40
36586;DHT22;22591;48.314;11.562;2023-12-28T03:08:53;4.10;83.00
36586;DHT22;22591;48.314;11.562;2023-12-28T03:11:19;4.20;82.70
36586;DHT22;22591;48.314;11.562;2023-12-28T03:13:46;4.30;81.60
36586;DHT22;22591;48.314;11.562;2023-12-28T03:16:13;4.20;82.80
36586;DHT22;22591;48.314;11.562;2023-12-28T03:18:39;4.20;83.20
36586;DHT22;22591;48.314;11.562;2023-12-28T03:21:05;4.40;82.00
36586;DHT22;22591;48.314;11.562;2023-12-28T03:23:30;4.40;81.40
36586;DHT22;22591;48.314;11.562;2023-12-28T03:25:56;4.40;80.70
36586;DHT22;22591;48.314;11.562;2023-12-28T03:28:21;4.30;81.50
36586;DHT22;22591;48.314;11.562;2023-12-28T03:30:47;4.30;81.10
36586;DHT22;22591;48.314;11.562;2023-12-28T03:33:13;4.30;80.90
36586;DHT22;22591;48.314;11.562;2023-12-28T03:35:38;4.30;80.70
36586;DHT22;22591;48.314;11.562;2023-12-28T03:38:04;4.40;80.70
36586;DHT22;22591;48.314;11.562;2023-12-28T03:40:29;4.40;79.70
36586;DHT22;22591;48.314;11.562;2023-12-28T03:42:55;4.30;80.80
36586;DHT22;22591;48.314;11.562;2023-12-28T03:45:21;4.20;80.40
36586;DHT22;22591;48.314;11.562;2023-12-28T03:47:46;4.10;80.70
36586;DHT22;22591;48.314;11.562;2023-12-28T03:50:12;4.20;80.30
36586;DHT22;22591;48.314;11.562;2023-12-28T03:52:37;4.30;80.20
36586;DHT22;22591;48.314;11.562;2023-12-28T03:55:03;3.90;81.80
36586;DHT22;22591;48.314;11.562;2023-12-28T03:57:29;3.70;83.70
36586;DHT22;22591;48.314;11.562;2023-12-28T03:59:54;3.70;86.30
36586;DHT22;22591;48.314;11.562;2023-12-28T04:02:20;3.60;83.70
36586;DHT22;22591;48.314;11.562;2023-12-28T04:04:46;3.60;83.40
36586;DHT22;22591;48.314;11.562;2023-12-28T04:07:11;3.60;83.60
36586;DHT22;22591;48.314;11.562;2023-12-28T04:09:37;3.70;84.80
36586;DHT22;22591;48.314;11.562;2023-12-28T04:12:03;4.00;81.50
36586;DHT22;22591;48.314;11.562;2023-12-28T04:14:29;4.20;81.50
36586;DHT22;22591;48.314;11.562;2023-12-28T04:16:54;4.20;80.60
36586;DHT22;22591;48.314;11.562;2023-12-28T04:19:20;4.30;79.90
36586;DHT22;22591;48.314;11.562;2023-12-28T04:21:45;4.40;79.80
36586;DHT22;22591;48.314;11.562;2023-12-28T04:24:11;4.40;79.50
36586;DHT22;22591;48.314;11.562;2023-12-28T04:26:36;4.40;79.90
36586;DHT22;22591;48.314;11.562;2023-12-28T04:29:02;4.30;80.30
36586;DHT22;22591;48.314;11.562;2023-12-28T04:31:27;4.30;81.30
36586;DHT22;22591;48.314;11.562;2023-12-28T04:33:53;4.30;81.70
36586;DHT22;22591;48.314;11.562;2023-12-28T04:36:19;4.30;81.30
36586;DHT22;22591;48.314;11.562;2023-12-28T04:38:44;4.20;81.70
36586;DHT22;22591;48.314;11.562;2023-12-28T04:41:10;4.20;82.10
36586;DHT22;22591;48.314;11.562;2023-12-28T04:43:37;4.30;80.90
36586;DHT22;22591;48.314;11.562;2023-12-28T04:46:03;4.20;80.90
36586;DHT22;22591;48.314;11.562;2023-12-28T04:48:29;4.30;80.70
36586;DHT22;22591;48.314;11.562;2023-12-28T04:50:55;4.60;78.60
36586;DHT22;22591;48.314;11.562;2023-12-28T04:53:20;4.80;77.10
36586;DHT22;22591;48.314;11.562;2023-12-28T04:55:46;4.90;76.80
36586;DHT22;22591;48.314;11.562;2023-12-28T04:58:12;5.00;76.20
36586;DHT22;22591;48.314;11.562;2023-12-28T05:00:37;5.00;75.80
36586;DHT22;22591;48.314;11.562;2023-12-28T05:03:03;4.90;76.20
36586;DHT22;22591;48.314;11.562;2023-12-28T05:05:29;5.00;76.40
36586;DHT22;22591;48.314;11.562;2023-12-28T05:07:54;5.20;75.40
36586;DHT22;22591;48.314;11.562;2023-12-28T05:10:20;5.30;75.50
36586;DHT22;22591;48.314;11.562;2023-12-28T05:12:45;5.20;75.20
36586;DHT22;22591;48.314;11.562;2023-12-28T05:15:11;5.10;75.20
36586;DHT22;22591;48.314;11.562;2023-12-28T05:17:36;5.10;75.50
36586;DHT22;22591;48.314;11.562;2023-12-28T05:20:02;5.10;75.70
36586;DHT22;22591;48.314;11.562;2023-12-28T05:22:28;5.00;75.80
36586;DHT22;22591;48.314;11.562;2023-12-28T05:24:53;5.00;75.90
36586;DHT22;22591;48.314;11.562;2023-12-28T05:27:19;5.10;75.50
36586;DHT22;22591;48.314;11.562;2023-12-28T05:29:45;5.10;75.40
36586;DHT22;22591;48.314;11.562;2023-12-28T05:32:10;5.10;76.00
36586;DHT22;22591;48.314;11.562;2023-12-28T05:34:36;5.00;77.00
36586;DHT22;22591;48.314;11.562;2023-12-28T05:37:01;4.80;78.10
36586;DHT22;22591;48.314;11.562;2023-12-28T05:39:27;4.60;78.60
36586;DHT22;22591;48.314;11.562;2023-12-28T05:41:52;4.40;79.10
36586;DHT22;22591;48.314;11.562;2023-12-28T05:44:18;4.20;79.90
36586;DHT22;22591;48.314;11.562;2023-12-28T05:46:43;4.00;81.50
36586;DHT22;22591;48.314;11.562;2023-12-28T05:49:09;3.80;82.60
36586;DHT22;22591;48.314;11.562;2023-12-28T05:51:39;3.60;83.40
36586;DHT22;22591;48.314;11.562;2023-12-28T05:54:07;3.50;83.20
36586;DHT22;22591;48.314;11.562;2023-12-28T05:56:33;3.60;82.60
36586;DHT22;22591;48.314;11.562;2023-12-28T05:58:59;3.80;80.80
36586;DHT22;22591;48.314;11.562;2023-12-28T06:01:24;4.00;80.60
36586;DHT22;22591;48.314;11.562;2023-12-28T06:03:50;4.10;80.30
36586;DHT22;22591;48.314;11.562;2023-12-28T06:06:18;4.20;79.80
36586;DHT22;22591;48.314;11.562;2023-12-28T06:08:43;4.10;79.90
36586;DHT22;22591;48.314;11.562;2023-12-28T06:11:09;3.90;80.60
36586;DHT22;22591;48.314;11.562;2023-12-28T06:13:35;4.00;80.60
36586;DHT22;22591;48.314;11.562;2023-12-28T06:16:01;3.80;81.10
36586;DHT22;22591;48.314;11.562;2023-12-28T06:18:26;3.80;81.60
36586;DHT22;22591;48.314;11.562;2023-12-28T06:20:52;3.80;82.60
36586;DHT22;22591;48.314;11.562;2023-12-28T06:23:17;3.90;81.00
36586;DHT22;22591;48.314;11.562;2023-12-28T06:25:43;3.80;81.40
36586;DHT22;22591;48.314;11.562;2023-12-28T06:28:09;3.80;81.00
36586;DHT22;22591;48.314;11.562;2023-12-28T06:30:34;3.70;81.50
36586;DHT22;22591;48.314;11.562;2023-12-28T06:33:00;3.70;82.00
36586;DHT22;22591;48.314;11.562;2023-12-28T06:35:25;3.70;81.50
36586;DHT22;22591;48.314;11.562;2023-12-28T06:37:51;3.70;81.60
36586;DHT22;22591;48.314;11.562;2023-12-28T06:40:16;3.90;80.20
36586;DHT22;22591;48.314;11.562;2023-12-28T06:42:42;4.00;80.40
36586;DHT22;22591;48.314;11.562;2023-12-28T06:45:09;3.70;81.20
36586;DHT22;22591;48.314;11.562;2023-12-28T06:47:35;3.80;81.00
36586;DHT22;22591;48.314;11.562;2023-12-28T06:50:01;4.00;80.50
36586;DHT22;22591;48.314;11.562;2023-12-28T06:52:26;4.10;80.40
36586;DHT22;22591;48.314;11.562;2023-12-28T06:54:52;4.20;78.80
36586;DHT22;22591;48.314;11.562;2023-12-28T06:57:18;4.30;79.30
36586;DHT22;22591;48.314;11.562;2023-12-28T06:59:44;4.40;78.70
36586;DHT22;22591;48.314;11.562;2023-12-28T07:02:10;4.30;78.50
36586;DHT22;22591;48.314;11.562;2023-12-28T07:04:35;4.30;78.40
36586;DHT22;22591;48.314;11.562;2023-12-28T07:07:02;4.10;80.20
36586;DHT22;22591;48.314;11.562;2023-12-28T07:09:27;4.20;79.10
36586;DHT22;22591;48.314;11.562;2023-12-28T07:11:53;4.10;79.70
36586;DHT22;22591;48.314;11.562;2023-12-28T07:14:18;4.20;79.30
36586;DHT22;22591;48.314;11.562;2023-12-28T07:16:44;3.90;81.20
36586;DHT22;22591;48.314;11.562;2023-12-28T07:19:10;3.90;80.80
36586;DHT22;22591;48.314;11.562;2023-12-28T07:21:36;3.80;80.50
36586;DHT22;22591;48.314;11.562;2023-12-28T07:24:01;3.80;82.00
36586;DHT22;22591;48.314;11.562;2023-12-28T07:26:27;3.90;80.40
36586;DHT22;22591;48.314;11.562;2023-12-28T07:28:52;4.00;80.10
36586;DHT22;22591;48.314;11.562;2023-12-28T07:31:26;4.20;79.30
36586;DHT22;22591;48.314;11.562;2023-12-28T07:33:53;4.30;78.40
36586;DHT22;22591;48.314;11.562;2023-12-28T07:36:19;4.40;78.10
36586;DHT22;22591;48.314;11.562;2023-12-28T07:38:45;4.50;77.90
36586;DHT22;22591;48.314;11.562;2023-12-28T07:41:10;4.70;77.70
36586;DHT22;22591;48.314;11.562;2023-12-28T07:43:36;4.80;76.90
36586;DHT22;22591;48.314;11.562;2023-12-28T07:46:02;4.70;79.70
36586;DHT22;22591;48.314;11.562;2023-12-28T07:48:28;4.80;77.40
36586;DHT22;22591;48.314;11.562;2023-12-28T07:50:58;4.80;78.30
36586;DHT22;22591;48.314;11.562;2023-12-28T07:53:24;5.00;77.20
36586;DHT22;22591;48.314;11.562;2023-12-28T07:55:50;5.20;76.90
36586;DHT22;22591;48.314;11.562;2023-12-28T07:58:15;5.30;76.90
36586;DHT22;22591;48.314;11.562;2023-12-28T08:00:41;5.60;75.80
36586;DHT22;22591;48.314;11.562;2023-12-28T08:03:07;5.70;75.60
36586;DHT22;22591;48.314;11.562;2023-12-28T08:05:32;5.80;73.60
36586;DHT22;22591;48.314;11.562;2023-12-28T08:07:58;6.00;74.20
36586;DHT22;22591;48.314;11.562;2023-12-28T08:10:23;6.00;74.00
36586;DHT22;22591;48.314;11.562;2023-12-28T08:12:49;6.10;74.10
36586;DHT22;22591;48.314;11.562;2023-12-28T08:15:14;6.20;76.50
36586;DHT22;22591;48.314;11.562;2023-12-28T08:17:40;6.40;73.00
36586;DHT22;22591;48.314;11.562;2023-12-28T08:20:06;6.30;73.70
36586;DHT22;22591;48.314;11.562;2023-12-28T08:22:32;6.30;74.50
36586;DHT22;22591;48.314;11.562;2023-12-28T08:24:57;6.40;73.60
36586;DHT22;22591;48.314;11.562;2023-12-28T08:27:23;6.50;73.30
36586;DHT22;22591;48.314;11.562;2023-12-28T08:29:49;6.50;73.70
36586;DHT22;22591;48.314;11.562;2023-12-28T08:32:14;6.70;74.60
36586;DHT22;22591;48.314;11.562;2023-12-28T08:34:40;6.90;73.50
36586;DHT22;22591;48.314;11.562;2023-12-28T08:37:06;7.10;72.50
36586;DHT22;22591;48.314;11.562;2023-12-28T08:39:32;7.30;71.80
36586;DHT22;22591;48.314;11.562;2023-12-28T08:41:57;7.60;69.80
36586;DHT22;22591;48.314;11.562;2023-12-28T08:44:23;7.60;69.80
36586;DHT22;22591;48.314;11.562;2023-12-28T08:46:48;7.70;68.90
36586;DHT22;22591;48.314;11.562;2023-12-28T08:49:14;7.80;68.10
36586;DHT22;22591;48.314;11.562;2023-12-28T08:51:41;7.90;68.70
36586;DHT22;22591;48.314;11.562;2023-12-28T08:54:07;7.80;69.40
36586;DHT22;22591;48.314;11.562;2023-12-28T08:56:33;7.80;70.40
36586;DHT22;22591;48.314;11.562;2023-12-28T08:58:59;7.80;71.10
36586;DHT22;22591;48.314;11.562;2023-12-28T09:01:24;7.90;69.20
36586;DHT22;22591;48.314;11.562;2023-12-28T09:03:55;8.10;68.80
36586;DHT22;22591;48.314;11.562;2023-12-28T09:06:21;8.00;68.80
36586;DHT22;22591;48.314;11.562;2023-12-28T09:08:51;8.20;67.70
36586;DHT22;22591;48.314;11.562;2023-12-28T09:11:17;8.30;67.50
36586;DHT22;22591;48.314;11.562;2023-12-28T09:13:43;8.30;68.20
36586;DHT22;22591;48.314;11.562;2023-12-28T09:16:13;8.40;68.50
36586;DHT22;22591;48.314;11.562;2023-12-28T09:18:39;8.40;68.50
36586;DHT22;22591;48.314;11.562;2023-12-28T09:21:06;8.50;67.90
36586;DHT22;22591;48.314;11.562;2023-12-28T09:23:33;8.50;69.00
36586;DHT22;22591;48.314;11.562;2023-12-28T09:26:00;8.60;68.60
36586;DHT22;22591;48.314;11.562;2023-12-28T09:28:25;8.50;67.60
36586;DHT22;22591;48.314;11.562;2023-12-28T09:30:51;8.50;68.00
36586;DHT22;22591;48.314;11.562;2023-12-28T09:33:17;8.70;68.00
36586;DHT22;22591;48.314;11.562;2023-12-28T09:35:42;8.70;67.50
36586;DHT22;22591;48.314;11.562;2023-12-28T09:38:08;8.80;67.80
36586;DHT22;22591;48.314;11.562;2023-12-28T09:40:35;8.90;66.40
36586;DHT22;22591;48.314;11.562;2023-12-28T09:43:26;8.90;66.80
36586;DHT22;22591;48.314;11.562;2023-12-28T09:45:52;8.90;65.80
36586;DHT22;22591;48.314;11.562;2023-12-28T09:48:20;9.00;66.60
36586;DHT22;22591;48.314;11.562;2023-12-28T09:50:52;9.10;65.40
36586;DHT22;22591;48.314;11.562;2023-12-28T09:53:23;9.10;65.10
36586;DHT22;22591;48.314;11.562;2023-12-28T09:55:49;9.20;65.60
36586;DHT22;22591;48.314;11.562;2023-12-28T09:58:17;9.40;66.30
36586;DHT22;22591;48.314;11.562;2023-12-28T10:00:45;9.50;67.00
36586;DHT22;22591;48.314;11.562;2023-12-28T10:03:12;9.60;66.10
36586;DHT22;22591;48.314;11.562;2023-12-28T10:05:41;9.80;65.30
36586;DHT22;22591;48.314;11.562;2023-12-28T10:08:07;9.90;64.30
36586;DHT22;22591;48.314;11.562;2023-12-28T10:10:33;10.10;64.10
36586;DHT22;22591;48.314;11.562;2023-12-28T10:12:59;10.10;62.70
36586;DHT22;22591;48.314;11.562;2023-12-28T10:15:25;10.10;63.60
36586;DHT22;22591;48.314;11.562;2023-12-28T10:17:52;10.10;63.20
36586;DHT22;22591;48.314;11.562;2023-12-28T10:20:17;10.20;62.60
36586;DHT22;22591;48.314;11.562;2023-12-28T10:22:44;10.30;63.30
36586;DHT22;22591;48.314;11.562;2023-12-28T10:25:11;10.20;62.70
36586;DHT22;22591;48.314;11.562;2023-12-28T10:27:38;10.40;62.70
36586;DHT22;22591;48.314;11.562;2023-12-28T10:30:05;10.40;62.90
36586;DHT22;22591;48.314;11.562;2023-12-28T10:32:31;10.40;62.90
36586;DHT22;22591;48.314;11.562;2023-12-28T10:34:56;10.40;63.00
36586;DHT22;22591;48.314;11.562;2023-12-28T10:37:24;10.40;62.20
36586;DHT22;22591;48.314;11.562;2023-12-28T10:39:54;10.50;61.20
36586;DHT22;22591;48.314;11.562;2023-12-28T10:42:52;10.60;61.10
36586;DHT22;22591;48.314;11.562;2023-12-28T10:45:19;10.60;61.70
36586;DHT22;22591;48.314;11.562;2023-12-28T10:48:15;10.60;61.80
36586;DHT22;22591;48.314;11.562;2023-12-28T10:50:47;10.60;62.00
36586;DHT22;22591;48.314;11.562;2023-12-28T10:59:24;10.70;61.90
36586;DHT22;22591;48.314;11.562;2023-12-28T11:01:55;10.70;62.50
36586;DHT22;22591;48.314;11.562;2023-12-28T11:04:51;10.70;63.20
36586;DHT22;22591;48.314;11.562;2023-12-28T11:07:19;10.70;61.50
36586;DHT22;22591;48.314;11.562;2023-12-28T11:09:46;10.60;61.20
36586;DHT22;22591;48.314;11.562;2023-12-28T11:12:13;10.70;61.20
36586;DHT22;22591;48.314;11.562;2023-12-28T11:14:40;10.80;61.30
36586;DHT22;22591;48.314;11.562;2023-12-28T11:17:06;10.80;61.80
36586;DHT22;22591;48.314;11.562;2023-12-28T11:19:32;11.00;60.70
36586;DHT22;22591;48.314;11.562;2023-12-28T11:22:01;10.90;61.20
36586;DHT22;22591;48.314;11.562;2023-12-28T11:24:29;10.90;60.80
36586;DHT22;22591;48.314;11.562;2023-12-28T11:26:56;10.80;61.30
36586;DHT22;22591;48.314;11.562;2023-12-28T11:29:22;10.80;61.00
36586;DHT22;22591;48.314;11.562;2023-12-28T11:31:52;10.80;60.70
36586;DHT22;22591;48.314;11.562;2023-12-28T11:34:18;10.80;61.50
36586;DHT22;22591;48.314;11.562;2023-12-28T11:36:48;10.90;61.00
36586;DHT22;22591;48.314;11.562;2023-12-28T11:39:29;10.80;62.70
36586;DHT22;22591;48.314;11.562;2023-12-28T11:42:00;10.70;63.10
36586;DHT22;22591;48.314;11.562;2023-12-28T11:44:28;10.80;63.20
36586;DHT22;22591;48.314;11.562;2023-12-28T11:46:54;10.80;63.60
36586;DHT22;22591;48.314;11.562;2023-12-28T11:49:25;10.80;63.50
36586;DHT22;22591;48.314;11.562;2023-12-28T11:51:57;10.80;63.50
36586;DHT22;22591;48.314;11.562;2023-12-28T11:54:24;10.80;63.50
36586;DHT22;22591;48.314;11.562;2023-12-28T11:56:50;11.00;63.10
36586;DHT22;22591;48.314;11.562;2023-12-28T11:59:16;10.90;62.70
36586;DHT22;22591;48.314;11.562;2023-12-28T12:01:43;10.90;61.50
36586;DHT22;22591;48.314;11.562;2023-12-28T12:04:09;10.90;61.80
36586;DHT22;22591;48.314;11.562;2023-12-28T12:06:35;10.80;62.40
36586;DHT22;22591;48.314;11.562;2023-12-28T12:09:01;10.70;63.00
36586;DHT22;22591;48.314;11.562;2023-12-28T12:11:27;10.60;63.10
36586;DHT22;22591;48.314;11.562;2023-12-28T12:13:54;10.50;63.60
36586;DHT22;22591;48.314;11.562;2023-12-28T12:16:20;10.50;63.30
36586;DHT22;22591;48.314;11.562;2023-12-28T12:18:48;10.40;64.30
36586;DHT22;22591;48.314;11.562;2023-12-28T12:21:14;10.50;62.50
36586;DHT22;22591;48.314;11.562;2023-12-28T12:23:41;10.50;62.70
36586;DHT22;22591;48.314;11.562;2023-12-28T12:26:07;10.40;63.50
36586;DHT22;22591;48.314;11.562;2023-12-28T12:28:52;10.50;62.70
36586;DHT22;22591;48.314;11.562;2023-12-28T12:31:18;10.60;61.80
36586;DHT22;22591;48.314;11.562;2023-12-28T12:33:43;10.60;61.20
36586;DHT22;22591;48.314;11.562;2023-12-28T12:36:09;10.50;63.40
36586;DHT22;22591;48.314;11.562;2023-12-28T12:38:36;10.50;62.70
36586;DHT22;22591;48.314;11.562;2023-12-28T12:41:02;10.50;63.10
36586;DHT22;22591;48.314;11.562;2023-12-28T12:43:28;10.50;63.30
36586;DHT22;22591;48.314;11.562;2023-12-28T12:45:54;10.50;62.00
36586;DHT22;22591;48.314;11.562;2023-12-28T12:48:19;10.50;62.30
36586;DHT22;22591;48.314;11.562;2023-12-28T12:50:45;10.60;61.30
36586;DHT22;22591;48.314;11.562;2023-12-28T12:53:11;10.60;61.60
36586;DHT22;22591;48.314;11.562;2023-12-28T12:55:37;10.70;61.50
36586;DHT22;22591;48.314;11.562;2023-12-28T12:58:08;10.60;62.10
36586;DHT22;22591;48.314;11.562;2023-12-28T13:00:34;10.60;62.70
36586;DHT22;22591;48.314;11.562;2023-12-28T13:03:01;10.60;63.50
36586;DHT22;22591;48.314;11.562;2023-12-28T13:05:26;10.50;63.80
36586;DHT22;22591;48.314;11.562;2023-12-28T13:07:53;10.50;65.00
36586;DHT22;22591;48.314;11.562;2023-12-28T13:10:19;10.50;63.70
36586;DHT22;22591;48.314;11.562;2023-12-28T13:12:45;10.50;64.40
36586;DHT22;22591;48.314;11.562;2023-12-28T13:15:10;10.50;63.80
36586;DHT22;22591;48.314;11.562;2023-12-28T13:17:36;10.50;64.40
36586;DHT22;22591;48.314;11.562;2023-12-28T13:20:03;10.50;64.00
36586;DHT22;22591;48.314;11.562;2023-12-28T13:22:31;10.50;64.90
36586;DHT22;22591;48.314;11.562;2023-12-28T13:24:57;10.50;64.90
36586;DHT22;22591;48.314;11.562;2023-12-28T13:27:22;10.40;65.60
36586;DHT22;22591;48.314;11.562;2023-12-28T13:29:49;10.50;65.40
36586;DHT22;22591;48.314;11.562;2023-12-28T13:32:15;10.50;65.80
36586;DHT22;22591;48.314;11.562;2023-12-28T13:34:40;10.40;66.50
36586;DHT22;22591;48.314;11.562;2023-12-28T13:37:06;10.40;66.50
36586;DHT22;22591;48.314;11.562;2023-12-28T13:39:31;10.40;66.80
36586;DHT22;22591;48.314;11.562;2023-12-28T13:41:58;10.40;66.40
36586;DHT22;22591;48.314;11.562;2023-12-28T13:44:23;10.40;66.60
36586;DHT22;22591;48.314;11.562;2023-12-28T13:46:49;10.40;66.80
36586;DHT22;22591;48.314;11.562;2023-12-28T13:49:15;10.40;66.90
36586;DHT22;22591;48.314;11.562;2023-12-28T13:51:40;10.40;67.00
36586;DHT22;22591;48.314;11.562;2023-12-28T13:54:06;10.40;67.20
36586;DHT22;22591;48.314;11.562;2023-12-28T13:56:31;10.40;67.10
36586;DHT22;22591;48.314;11.562;2023-12-28T13:58:57;10.40;67.00
36586;DHT22;22591;48.314;11.562;2023-12-28T14:01:22;10.40;67.40
36586;DHT22;22591;48.314;11.562;2023-12-28T14:03:48;10.40;68.00
36586;DHT22;22591;48.314;11.562;2023-12-28T14:06:17;10.40;68.10
36586;DHT22;22591;48.314;11.562;2023-12-28T14:08:42;10.50;68.60
36586;DHT22;22591;48.314;11.562;2023-12-28T14:11:08;10.30;68.50
36586;DHT22;22591;48.314;11.562;2023-12-28T14:13:35;10.30;69.50
36586;DHT22;22591;48.314;11.562;2023-12-28T14:16:00;10.40;68.70
36586;DHT22;22591;48.314;11.562;2023-12-28T14:18:26;10.40;68.20
36586;DHT22;22591;48.314;11.562;2023-12-28T14:20:51;10.40;68.60
36586;DHT22;22591;48.314;11.562;2023-12-28T14:23:17;10.30;68.40
36586;DHT22;22591;48.314;11.562;2023-12-28T14:25:45;10.30;68.40
36586;DHT22;22591;48.314;11.562;2023-12-28T14:28:17;10.30;68.70
36586;DHT22;22591;48.314;11.562;2023-12-28T14:30:42;10.20;69.00
36586;DHT22;22591;48.314;11.562;2023-12-28T14:33:09;10.20;68.90
36586;DHT22;22591;48.314;11.562;2023-12-28T14:35:34;10.20;69.60
36586;DHT22;22591;48.314;11.562;2023-12-28T14:38:00;10.20;69.10
36586;DHT22;22591;48.314;11.562;2023-12-28T14:40:26;10.20;69.10
36586;DHT22;22591;48.314;11.562;2023-12-28T14:42:51;10.10;70.20
36586;DHT22;22591;48.314;11.562;2023-12-28T14:45:17;10.00;71.00
36586;DHT22;22591;48.314;11.562;2023-12-28T14:47:42;9.90;70.70
36586;DHT22;22591;48.314;11.562;2023-12-28T14:50:08;9.90;70.60
36586;DHT22;22591;48.314;11.562;2023-12-28T14:52:34;9.90;70.60
36586;DHT22;22591;48.314;11.562;2023-12-28T14:55:03;9.90;70.90
36586;DHT22;22591;48.314;11.562;2023-12-28T14:57:29;9.90;70.90
36586;DHT22;22591;48.314;11.562;2023-12-28T14:59:54;9.80;71.20
36586;DHT22;22591;48.314;11.562;2023-12-28T15:02:20;9.70;73.40
36586;DHT22;22591;48.314;11.562;2023-12-28T15:04:48;9.60;72.50
36586;DHT22;22591;48.314;11.562;2023-12-28T15:07:13;9.60;72.10
36586;DHT22;22591;48.314;11.562;2023-12-28T15:09:39;9.60;72.60
36586;DHT22;22591;48.314;11.562;2023-12-28T15:12:04;9.60;72.40
36586;DHT22;22591;48.314;11.562;2023-12-28T15:14:30;9.60;72.10
36586;DHT22;22591;48.314;11.562;2023-12-28T15:16:56;9.50;72.60
36586;DHT22;22591;48.314;11.562;2023-12-28T15:19:22;9.50;72.70
36586;DHT22;22591;48.314;11.562;2023-12-28T15:21:48;9.50;72.60
36586;DHT22;22591;48.314;11.562;2023-12-28T15:24:14;9.50;73.00
36586;DHT22;22591;48.314;11.562;2023-12-28T15:26:39;9.50;73.00
36586;DHT22;22591;48.314;11.562;2023-12-28T15:29:05;9.40;72.90